Time;durP1;ratioP1;P1;durP2;ratioP2;P2;SDS_P1;SDS_P2;PMS_P1;PMS_P2;Temp;Humidity;BMP_temperature;BMP_pressure;BME280_temperature;BME280_humidity;BME280_pressure;Samples;Min_cycle;Max_cycle;Signal;HPM_P1;HPM_P2
2023/05/09 00:01:21;;;;;;;10.87;4.10;;;12.40;99.90;;;;;;21084210;28;20481;-77
2023/05/09 00:11:22;;;;;;;86.80;6.30;;;12.50;99.90;;;;;;21082164;28;20035;-77
2023/05/09 00:21:22;;;;;;;48.23;6.80;;;12.60;99.90;;;;;;21083154;28;20059;-77
2023/05/09 00:31:23;;;;;;;14.90;7.07;;;12.80;99.90;;;;;;21042103;22;20048;-79
2023/05/09 00:41:24;;;;;;;16.80;6.20;;;13.00;99.90;;;;;;21002070;28;20029;-79
2023/05/09 00:51:27;;;;;;;7.00;3.80;;;13.00;99.90;;;;;;20920809;28;20029;-79
2023/05/09 01:01:28;;;;;;;7.07;4.55;;;13.00;99.90;;;;;;20856545;28;20033;-79
2023/05/09 01:11:35;;;;;;;13.37;6.50;;;12.90;99.90;;;;;;20873482;28;20040;-78
2023/05/09 01:21:41;;;;;;;34.97;7.03;;;12.90;99.90;;;;;;20924495;28;20029;-77
2023/05/09 01:31:44;;;;;;;11.90;7.50;;;12.80;99.90;;;;;;20955053;28;20048;-76
2023/05/09 01:41:45;;;;;;;23.55;6.90;;;12.70;99.90;;;;;;20938443;28;20035;-77
2023/05/09 01:51:47;;;;;;;;;;;12.70;99.90;;;;;;20884366;28;20072;-79
2023/05/09 02:01:48;;;;;;;8.45;5.57;;;12.70;99.90;;;;;;20854278;28;19945;-79
2023/05/09 02:11:49;;;;;;;11.68;7.15;;;12.80;99.90;;;;;;20852117;28;20037;-79
2023/05/09 02:21:50;;;;;;;62.30;7.03;;;12.80;99.90;;;;;;20847437;28;20079;-78
2023/05/09 02:31:52;;;;;;;103.60;8.93;;;11.90;99.90;;;;;;20861618;28;20041;-78
2023/05/09 02:41:53;;;;;;;144.45;11.98;;;11.80;99.90;;;;;;20883866;28;20044;-78
2023/05/09 02:51:54;;;;;;;26.50;9.10;;;11.80;99.90;;;;;;20888694;28;20033;-78
2023/05/09 03:01:55;;;;;;;26.87;8.60;;;11.90;99.90;;;;;;20828817;28;20056;-78
2023/05/09 03:11:56;;;;;;;22.85;9.48;;;11.80;99.90;;;;;;20845900;28;20033;-78
2023/05/09 03:21:57;;;;;;;13.70;7.53;;;11.90;99.90;;;;;;20860290;28;20041;-79
2023/05/09 03:31:58;;;;;;;9.33;4.77;;;12.10;99.90;;;;;;20865925;28;20080;-78
2023/05/09 03:41:59;;;;;;;6.80;4.50;;;11.90;99.90;;;;;;20934580;28;20076;-78
2023/05/09 03:52:01;;;;;;;5.00;3.65;;;11.70;99.90;;;;;;20882791;28;20038;-78
2023/05/09 04:02:02;;;;;;;5.57;3.45;;;11.80;99.90;;;;;;20857533;28;20049;-80
2023/05/09 04:12:04;;;;;;;6.82;2.97;;;12.10;99.90;;;;;;20846698;28;20038;-77
2023/05/09 04:22:04;;;;;;;7.15;3.80;;;12.20;99.90;;;;;;20919000;28;20021;-79
2023/05/09 04:32:06;;;;;;;6.28;3.35;;;12.30;99.90;;;;;;20846290;28;20109;-76
2023/05/09 04:42:08;;;;;;;5.85;3.72;;;12.50;99.90;;;;;;20840939;28;20459;-79
2023/05/09 04:52:09;;;;;;;5.07;3.60;;;12.60;99.90;;;;;;20902277;28;20146;-78
2023/05/09 05:02:10;;;;;;;7.27;3.83;;;12.80;99.90;;;;;;20966046;28;20201;-78
2023/05/09 05:12:11;;;;;;;;;;;12.70;99.90;;;;;;20922181;28;20029;-78
2023/05/09 05:22:14;;;;;;;8.07;5.07;;;12.70;99.90;;;;;;20967617;28;19912;-78
2023/05/09 05:32:17;;;;;;;7.60;4.93;;;12.90;99.90;;;;;;20953305;28;20024;-77
2023/05/09 05:42:18;;;;;;;7.47;4.40;;;13.20;99.90;;;;;;20964113;28;20371;-78
2023/05/09 05:52:20;;;;;;;8.07;4.88;;;13.40;99.90;;;;;;20966886;28;20032;-78
2023/05/09 06:02:20;;;;;;;7.40;4.90;;;13.30;99.90;;;;;;20988570;28;20508;-78
2023/05/09 06:12:22;;;;;;;;;;;13.50;99.90;;;;;;20985365;28;20123;-78
2023/05/09 06:22:23;;;;;;;10.25;6.28;;;13.80;99.90;;;;;;20929167;28;20282;-78
2023/05/09 06:32:24;;;;;;;9.13;6.23;;;13.80;99.90;;;;;;20912330;28;20083;-78
2023/05/09 06:42:25;;;;;;;;;;;13.80;99.90;;;;;;20954864;28;20048;-77
2023/05/09 06:52:26;;;;;;;9.77;6.28;;;14.00;99.90;;;;;;20941644;28;19908;-78
2023/05/09 07:02:27;;;;;;;10.27;6.77;;;14.30;99.90;;;;;;20967206;28;20296;-79
2023/05/09 07:12:29;;;;;;;9.03;6.00;;;14.60;99.90;;;;;;20983041;28;20020;-77
2023/05/09 07:22:30;;;;;;;7.25;5.28;;;15.20;99.90;;;;;;20974319;28;20041;-77
2023/05/09 07:32:31;;;;;;;7.90;5.73;;;15.70;99.90;;;;;;20974259;28;20047;-79
2023/05/09 07:42:32;;;;;;;7.37;5.13;;;15.70;99.90;;;;;;20983045;28;20032;-78
2023/05/09 07:52:33;;;;;;;7.37;5.10;;;16.60;99.90;;;;;;20898266;28;20662;-78
2023/05/09 08:02:33;;;;;;;7.20;5.07;;;17.10;99.90;;;;;;20831542;28;20075;-77
2023/05/09 08:12:34;;;;;;;7.30;4.97;;;18.50;99.90;;;;;;20852623;28;20025;-78
2023/05/09 08:22:40;;;;;;;7.15;5.30;;;19.40;99.90;;;;;;20913132;28;20029;-78
2023/05/09 08:32:41;;;;;;;9.75;6.50;;;20.00;99.90;;;;;;20936351;28;20353;-78
2023/05/09 08:42:44;;;;;;;7.10;5.13;;;20.40;99.90;;;;;;20965106;28;20021;-78
2023/05/09 08:52:46;;;;;;;6.78;5.00;;;21.30;99.90;;;;;;20993393;28;20087;-79
2023/05/09 09:02:47;;;;;;;8.85;5.57;;;21.80;99.90;;;;;;20963186;28;20067;-79
2023/05/09 09:12:48;;;;;;;7.35;5.35;;;22.00;99.90;;;;;;20969727;28;20097;-79
2023/05/09 09:22:54;;;;;;;7.95;5.63;;;22.40;99.90;;;;;;20979752;28;20032;-79
2023/05/09 09:32:58;;;;;;;7.07;4.70;;;21.90;99.90;;;;;;20962335;28;20041;-77
2023/05/09 09:42:58;;;;;;;5.13;3.60;;;21.50;99.90;;;;;;20940871;28;20479;-78
2023/05/09 09:52:59;;;;;;;;;;;22.70;99.90;;;;;;20988055;28;20044;-78
2023/05/09 10:03:00;;;;;;;4.82;3.78;;;22.90;99.90;;;;;;20988729;28;19912;-78
2023/05/09 10:13:02;;;;;;;;;;;22.60;99.90;;;;;;20990855;28;20083;-79
2023/05/09 10:23:05;;;;;;;7.63;3.77;;;23.00;99.90;;;;;;20881642;28;20009;-78
2023/05/09 10:33:12;;;;;;;5.28;2.85;;;23.40;99.90;;;;;;20842480;28;20508;-78
2023/05/09 10:43:13;;;;;;;4.13;2.92;;;23.10;99.90;;;;;;20889169;28;20032;-78
2023/05/09 10:53:15;;;;;;;4.00;2.85;;;23.50;99.90;;;;;;20933403;28;20033;-78
2023/05/09 11:03:20;;;;;;;4.60;2.70;;;23.70;99.90;;;;;;20945984;28;20191;-78
2023/05/09 11:13:29;;;;;;;10.93;2.70;;;23.00;99.90;;;;;;20985699;28;20029;-78
2023/05/09 11:23:30;;;;;;;6.82;2.65;;;23.00;99.90;;;;;;20999799;22;20047;-78
2023/05/09 11:33:35;;;;;;;7.45;2.40;;;22.90;99.90;;;;;;21075604;28;20482;-78
2023/05/09 11:43:37;;;;;;;5.85;2.75;;;22.80;99.90;;;;;;21085720;28;20032;-79
2023/05/09 11:53:45;;;;;;;3.25;2.28;;;23.90;99.90;;;;;;21088887;28;20040;-78
2023/05/09 12:03:46;;;;;;;3.95;2.63;;;22.80;99.90;;;;;;21083388;28;20032;-78
2023/05/09 12:13:51;;;;;;;3.40;2.00;;;22.70;99.90;;;;;;21083285;28;20101;-78
2023/05/09 12:23:55;;;;;;;4.05;2.33;;;24.00;99.90;;;;;;21083560;28;20032;-78
2023/05/09 12:33:56;;;;;;;3.75;2.20;;;23.80;99.90;;;;;;21082052;28;20063;-78
2023/05/09 12:43:57;;;;;;;4.25;1.95;;;24.30;99.90;;;;;;21078757;28;20501;-78
2023/05/09 12:54:03;;;;;;;2.65;2.08;;;24.70;99.90;;;;;;21079187;28;20024;-78
2023/05/09 13:04:05;;;;;;;3.35;1.80;;;23.70;99.90;;;;;;21079174;28;20031;-79
2023/05/09 13:14:07;;;;;;;4.05;2.00;;;23.50;99.90;;;;;;21078884;28;20068;-78
2023/05/09 13:24:11;;;;;;;4.95;1.70;;;22.40;99.90;;;;;;21078667;28;20040;-78
2023/05/09 13:34:12;;;;;;;;;;;22.40;99.90;;;;;;21078181;28;20042;-78
2023/05/09 13:44:13;;;;;;;3.53;1.73;;;21.90;99.90;;;;;;21080499;28;19969;-78
2023/05/09 13:54:17;;;;;;;4.75;2.28;;;22.20;99.90;;;;;;21079418;28;20044;-77
2023/05/09 14:04:18;;;;;;;6.22;1.55;;;21.70;99.90;;;;;;21071723;28;20047;-78
2023/05/09 14:14:19;;;;;;;;;;;22.00;99.90;;;;;;21089464;28;20486;-78
2023/05/09 14:24:20;;;;;;;2.60;1.75;;;21.80;99.90;;;;;;21095937;28;19912;-78
2023/05/09 14:34:21;;;;;;;4.32;1.80;;;21.70;99.90;;;;;;21082000;28;20092;-78
2023/05/09 14:44:23;;;;;;;;;;;21.20;99.90;;;;;;21093696;28;20031;-77
2023/05/09 14:54:24;;;;;;;2.67;0.90;;;20.10;99.90;;;;;;21077092;28;19908;-77
2023/05/09 15:04:29;;;;;;;5.35;1.23;;;19.20;99.90;;;;;;21081240;28;20480;-77
2023/05/09 15:14:30;;;;;;;5.47;1.50;;;18.70;99.90;;;;;;21073112;28;20422;-77
2023/05/09 15:24:31;;;;;;;2.27;1.13;;;18.40;99.90;;;;;;21083552;28;20114;-77
2023/05/09 15:34:31;;;;;;;3.70;1.30;;;18.60;99.90;;;;;;21082601;28;20133;-78
2023/05/09 15:44:33;;;;;;;2.87;1.83;;;18.50;99.90;;;;;;21107033;28;20375;-78
2023/05/09 15:54:33;;;;;;;;;;;18.20;99.90;;;;;;21151337;28;20032;-79
2023/05/09 16:04:34;;;;;;;2.38;1.42;;;17.50;99.90;;;;;;21173093;28;19937;-77
2023/05/09 16:14:35;;;;;;;4.23;1.80;;;17.30;99.90;;;;;;21172072;28;20035;-78
2023/05/09 16:24:36;;;;;;;2.73;1.10;;;17.00;99.90;;;;;;21012330;28;20051;-77
2023/05/09 16:34:37;;;;;;;7.97;1.27;;;16.70;99.90;;;;;;21004902;28;20029;-78
2023/05/09 16:44:38;;;;;;;2.03;1.17;;;16.20;99.90;;;;;;21001343;28;20062;-77
2023/05/09 16:54:38;;;;;;;2.17;1.43;;;15.80;99.90;;;;;;21011804;28;20104;-77
2023/05/09 17:04:39;;;;;;;4.17;1.30;;;15.50;99.90;;;;;;21003492;28;20094;-77
2023/05/09 17:14:40;;;;;;;2.47;1.30;;;15.60;99.90;;;;;;21014565;28;20080;-78
2023/05/09 17:24:41;;;;;;;2.30;1.60;;;15.50;99.90;;;;;;21015422;28;20483;-78
2023/05/09 17:34:42;;;;;;;4.53;1.40;;;15.10;99.90;;;;;;21129943;28;20043;-78
2023/05/09 17:44:42;;;;;;;4.43;1.57;;;15.00;99.90;;;;;;21082938;28;20040;-77
2023/05/09 17:54:43;;;;;;;3.60;1.80;;;14.90;99.90;;;;;;21102095;28;20032;-78
2023/05/09 18:04:45;;;;;;;1.80;1.57;;;15.00;99.90;;;;;;21091574;28;20305;-78
2023/05/09 18:14:46;;;;;;;;;;;15.00;99.90;;;;;;21091648;28;20039;-78
2023/05/09 18:24:47;;;;;;;4.43;1.90;;;14.90;99.90;;;;;;21101411;28;19912;-78
2023/05/09 18:34:49;;;;;;;7.20;2.40;;;14.80;99.90;;;;;;21099793;28;20064;-77
2023/05/09 18:44:49;;;;;;;;;;;14.90;99.90;;;;;;21078373;28;20028;-77
2023/05/09 18:54:50;;;;;;;2.95;2.05;;;14.80;99.90;;;;;;21085324;28;19908;-77
2023/05/09 19:04:51;;;;;;;3.07;1.03;;;14.50;99.90;;;;;;21091166;28;20120;-76
2023/05/09 19:14:52;;;;;;;7.10;0.87;;;14.30;99.90;;;;;;21088866;28;20024;-77
2023/05/09 19:24:53;;;;;;;2.27;0.80;;;14.10;99.90;;;;;;21087918;28;20059;-77
2023/05/09 19:34:54;;;;;;;1.03;0.80;;;13.90;99.90;;;;;;21092692;28;20063;-77
2023/05/09 19:44:55;;;;;;;2.40;0.90;;;13.80;99.90;;;;;;21092048;28;20380;-78
2023/05/09 19:54:56;;;;;;;5.53;2.57;;;13.80;99.90;;;;;;21135310;28;20494;-78
2023/05/09 20:04:57;;;;;;;3.47;1.00;;;13.60;99.90;;;;;;21155394;28;20066;-79
2023/05/09 20:14:58;;;;;;;1.47;0.87;;;13.60;99.90;;;;;;21131659;28;20036;-79
2023/05/09 20:24:58;;;;;;;0.73;0.63;;;13.40;99.90;;;;;;21126902;28;20547;-78
2023/05/09 20:34:59;;;;;;;1.27;0.70;;;13.30;99.90;;;;;;21128018;28;20034;-78
2023/05/09 20:45:00;;;;;;;2.67;0.60;;;13.30;99.90;;;;;;21124493;28;20027;-79
2023/05/09 20:55:01;;;;;;;0.93;0.70;;;13.20;99.90;;;;;;21121794;28;20031;-79
2023/05/09 21:05:02;;;;;;;2.10;0.60;;;13.20;99.90;;;;;;21146761;28;20396;-78
2023/05/09 21:15:04;;;;;;;2.00;0.73;;;13.20;99.90;;;;;;21146682;28;20636;-78
2023/05/09 21:25:05;;;;;;;0.47;0.45;;;13.10;99.90;;;;;;21144261;28;20110;-79
2023/05/09 21:35:11;;;;;;;4.38;0.80;;;13.10;99.90;;;;;;21149895;28;20026;-79
2023/05/09 21:45:12;;;;;;;2.58;0.68;;;13.00;99.90;;;;;;21121911;28;20054;-80
2023/05/09 21:55:12;;;;;;;1.30;0.47;;;12.90;99.90;;;;;;21110070;28;20479;-80
2023/05/09 22:05:13;;;;;;;5.90;0.50;;;12.90;99.90;;;;;;21097920;28;20032;-79
2023/05/09 22:15:14;;;;;;;0.70;0.50;;;12.90;99.90;;;;;;21083955;28;20032;-79
2023/05/09 22:25:15;;;;;;;2.20;0.87;;;12.80;99.90;;;;;;21089099;28;20093;-80
2023/05/09 22:35:16;;;;;;;0.93;0.40;;;12.80;99.90;;;;;;21092712;28;20032;-79
2023/05/09 22:45:16;;;;;;;1.33;0.73;;;12.80;99.90;;;;;;21089231;28;20035;-79
2023/05/09 22:55:18;;;;;;;0.50;0.50;;;12.80;99.90;;;;;;21082422;28;20051;-78
2023/05/09 23:05:18;;;;;;;;;;;12.80;99.90;;;;;;21076024;28;20037;-78
2023/05/09 23:15:19;;;;;;;1.53;0.70;;;12.80;99.90;;;;;;21010584;28;19908;-78
2023/05/09 23:25:20;;;;;;;3.17;0.50;;;12.70;99.90;;;;;;21065450;28;20428;-78
2023/05/09 23:35:21;;;;;;;0.40;0.40;;;12.70;99.90;;;;;;21085768;28;20035;-79
2023/05/09 23:45:22;;;;;;;3.20;0.93;;;12.60;99.90;;;;;;21099310;28;20111;-79
2023/05/09 23:55:23;;;;;;;1.63;0.45;;;12.50;99.90;;;;;;21104322;28;20093;-78
